Chebba, Tunisia
Current Conditions -  °F | °C
As of 4:00 AM on Friday 28 Nov 2014 (Local Time) from DTMB Reporting Station
Clear Clear  
Wind Chill: 63°   Ceiling: Unl
Heat Index: 63°   Visibility: 4mi
Dew Point: 59°   Wind: 2mph
Humidity: 88%   Direction: 160°SSE
Pressure: 29.71"   Gusts: NA
Location:  35.24°N, 11.12°E
Report Text: DTMB 280300Z 16002KT 6000 NSC 17/15 Q1006
Loading
Personal Weather Stations






























Interactive Weather Map New forecast layout! Learn more

10-Day Weather Forecast

Advertisements
Track Severe Weather on mobile